M I D A S
Marine Information and Data Acquisition System
Tripno 796 of the Zeeleeuw from 2004-10-26 06:30:00 to 2004-10-26 17:40:00
Back to CruiseResearch ActivitiesStationsMapUnderway DataData graphs

EquipmentUnitsComments
TimeDGPSUTC
LatitudeDGPSDM.mWGS84
LongitudeDGPSDM.mWGS84
SpeedMeteo Stationm/sRelative wind speed
DirectionMeteo StationdegRelative wind direction
TemperatureMeteo Stationdeg CelciusAir temperature
PressureMeteo StationPaAtmospheric pressure
HumidityMeteo Station%Relative humidity
Missing or incorrect values are displayed as -999
Metereological data collected by the RV Zeeleeuw from 2004-10-26 06:30:00 to 2004-10-26 17:40:00
Time Latitude Longitude Speed Direction Temperature Pressure Humidity
2004-10-26 06:31 51°13.597 2°56.112 1.5 102 7.1 101170 89
2004-10-26 06:32 51°13.595 2°56.112 3.3 109 7.1 101170 89
2004-10-26 06:33 51°13.596 2°56.112 3.3 115 7.2 101170 89
2004-10-26 06:34 51°13.597 2°56.112 2 133 7.2 101170 89
2004-10-26 06:35 51°13.596 2°56.112 2.6 122 7.2 101170 89
2004-10-26 06:36 51°13.595 2°56.113 2.4 92 7.2 101170 89
2004-10-26 06:37 51°13.594 2°56.113 3.4 120 7.2 101180 89
2004-10-26 06:38 51°13.592 2°56.113 2.9 99 7.2 101180 89
2004-10-26 06:39 51°13.593 2°56.113 2 131 7.2 101180 89
2004-10-26 06:40 51°13.595 2°56.113 2.6 103 7.2 101180 89
2004-10-26 06:41 51°13.596 2°56.113 2.3 111 7.3 101170 89
2004-10-26 06:42 51°13.606 2°56.078 2.9 134 7.2 101170 89
2004-10-26 06:43 51°13.629 2°55.99 3.1 157 7.2 101180 89
2004-10-26 06:44 51°13.661 2°55.882 4.9 150 7.2 101180 89
2004-10-26 06:45 51°13.679 2°55.783 4.6 156 7.2 101180 89
2004-10-26 06:46 51°13.692 2°55.766 0.5 181 7.2 101180 89
2004-10-26 06:47 51°13.693 2°55.769 2.9 232 7.3 101180 89
2004-10-26 06:49 51°13.744 2°55.72 4.3 333 7.3 101180 89
2004-10-26 06:49 51°13.862 2°55.609 3.6 350 7.4 101180 89
2004-10-26 06:51 51°14.007 2°55.52 3.1 313 7.5 101190 88
2004-10-26 06:52 51°14.113 2°55.456 3.3 317 7.5 101190 88
2004-10-26 06:53 51°14.238 2°55.336 5.7 334 7.6 101180 88
2004-10-26 06:54 51°14.348 2°55.111 7 348 7.8 101180 89
2004-10-26 06:55 51°14.482 2°54.823 8.4 44 8.2 101180 90
2004-10-26 06:56 51°14.658 2°54.607 6.6 327 8.4 101140 89
2004-10-26 06:57 51°14.841 2°54.392 10.2 324 8.6 101140 90
2004-10-26 06:58 51°15.021 2°54.18 8.7 339 8.9 101150 90
2004-10-26 06:59 51°15.211 2°53.954 12.1 341 9.1 101150 90
2004-10-26 07:00 51°15.394 2°53.742 14 349 9.8 101120 91
2004-10-26 07:01 51°15.583 2°53.549 12.8 337 10.3 101120 87
2004-10-26 07:02 51°15.788 2°53.418 12 333 10.7 101120 85
2004-10-26 07:03 51°15.981 2°53.289 13.1 327 11 101110 82
2004-10-26 07:04 51°16.21 2°53.145 11.4 334 11.3 101120 80
2004-10-26 07:05 51°16.407 2°53.018 11.7 341 11.5 101120 78
2004-10-26 07:06 51°16.618 2°52.884 10.8 340 11.5 101130 75
2004-10-26 07:07 51°16.837 2°52.748 11.4 340 11.6 101120 75
2004-10-26 07:08 51°17.037 2°52.616 11.5 333 11.7 101140 74
2004-10-26 07:09 51°17.234 2°52.488 11.3 333 11.7 101120 73
2004-10-26 07:10 51°17.438 2°52.351 11 336 11.8 101120 73
2004-10-26 07:11 51°17.646 2°52.303 9.8 328 11.8 101120 72
2004-10-26 07:12 51°17.857 2°52.297 9.8 323 11.8 101120 72
2004-10-26 07:13 51°18.066 2°52.35 9.7 318 11.8 101120 72
2004-10-26 07:14 51°18.281 2°52.404 9.5 321 11.8 101130 70
2004-10-26 07:15 51°18.513 2°52.46 9.1 328 11.8 101130 69
2004-10-26 07:16 51°18.718 2°52.545 7.6 315 11.8 101130 69
2004-10-26 07:17 51°18.917 2°52.654 6.9 320 11.9 101140 70
2004-10-26 07:18 51°19.112 2°52.784 7.4 43 11.9 101150 70
2004-10-26 07:19 51°19.307 2°52.915 7.5 318 11.9 101150 70
2004-10-26 07:20 51°19.506 2°53.047 9 42 12 101150 71
2004-10-26 07:21 51°19.704 2°53.182 9.1 317 11.9 101140 70
2004-10-26 07:22 51°19.896 2°53.323 8.3 312 11.9 101150 69
2004-10-26 07:23 51°20.118 2°53.487 8.3 319 11.9 101140 68
2004-10-26 07:24 51°20.312 2°53.63 7.1 228 12 101150 69
2004-10-26 07:25 51°20.509 2°53.778 10.5 317 12 101140 70
2004-10-26 07:26 51°20.733 2°53.943 8.2 313 12 101140 68
2004-10-26 07:27 51°20.922 2°54.083 8.5 316 12 101140 67
2004-10-26 07:28 51°21.112 2°54.238 7.2 320 12.2 101150 68
2004-10-26 07:29 51°21.316 2°54.437 6.1 313 12.1 101150 67
2004-10-26 07:31 51°21.506 2°54.635 7.3 320 12.2 101150 69
2004-10-26 07:32 51°21.688 2°54.824 6.8 306 12.2 101150 68
2004-10-26 07:33 51°21.867 2°55.004 7.1 313 12.2 101150 67
2004-10-26 07:34 51°22.055 2°55.157 7.2 305 12.2 101150 65
2004-10-26 07:35 51°22.265 2°55.322 6.7 309 12.2 101150 63
2004-10-26 07:36 51°22.471 2°55.486 7.9 303 12.3 101150 65
2004-10-26 07:37 51°22.667 2°55.638 8.6 323 12.3 101150 67
2004-10-26 07:38 51°22.863 2°55.772 7.8 318 12.3 101200 67
2004-10-26 07:39 51°23.055 2°55.905 8 322 12.2 101150 67
2004-10-26 07:40 51°23.248 2°56.046 7.4 316 12.2 101160 66
2004-10-26 07:41 51°23.447 2°56.186 7.2 317 12.1 101150 65
2004-10-26 07:42 51°23.642 2°56.323 7.9 229 12.2 101160 66
2004-10-26 07:43 51°23.833 2°56.457 7.8 44 12.2 101150 68
2004-10-26 07:44 51°24.032 2°56.583 8.7 319 12.2 101150 67
2004-10-26 07:45 51°24.226 2°56.707 9.7 315 12.2 101150 67
2004-10-26 07:46 51°24.422 2°56.827 8.8 321 12.1 101150 65
2004-10-26 07:47 51°24.613 2°56.941 8.5 313 12.2 101150 65
2004-10-26 07:48 51°24.805 2°57.078 7.5 326 12.2 101160 65
2004-10-26 07:49 51°24.992 2°57.217 7.6 323 12.2 101150 66
2004-10-26 07:50 51°25.182 2°57.36 7.2 228 12.2 101150 67
2004-10-26 07:51 51°25.37 2°57.502 7.8 319 12.3 101150 67
2004-10-26 07:52 51°25.587 2°57.673 9 317 12.3 101150 66
2004-10-26 07:53 51°25.779 2°57.824 7.9 315 12.2 101150 66
2004-10-26 07:54 51°25.974 2°57.975 7.7 226 12.3 101150 66
2004-10-26 07:55 51°26.164 2°58.127 6.4 315 12.2 101150 66
2004-10-26 07:56 51°26.357 2°58.271 6.6 324 12.3 101150 67
2004-10-26 07:57 51°26.565 2°58.416 8.6 228 12.3 101150 68
2004-10-26 07:58 51°26.76 2°58.557 7.2 312 12.2 101140 67
2004-10-26 07:59 51°26.952 2°58.704 7.2 40 12.2 101140 67
2004-10-26 08:00 51°27.137 2°58.9 7.5 315 12.2 101140 68
2004-10-26 08:01 51°27.312 2°59.138 6 321 12.2 101150 68
2004-10-26 08:03 51°27.542 2°59.532 5.2 43 12.2 101150 67
2004-10-26 08:04 51°27.678 2°59.775 5 311 12.3 101150 67
2004-10-26 08:05 51°27.835 3°0.058 5.8 43 12.2 101150 66
2004-10-26 08:06 51°27.979 3°0.345 4.8 306 12.2 101160 66
2004-10-26 08:07 51°28.1 3°0.617 6.6 303 12.4 101160 65
2004-10-26 08:08 51°28.241 3°0.927 5.9 309 12.3 101150 66
2004-10-26 08:09 51°28.394 3°1.258 3.4 321 12.3 101150 66
2004-10-26 08:10 51°28.528 3°1.548 3.7 324 12.4 101150 65
2004-10-26 08:11 51°28.655 3°1.817 4 314 12.4 101150 67
2004-10-26 08:12 51°28.791 3°2.11 4.6 308 12.5 101150 66
2004-10-26 08:13 51°28.916 3°2.384 4.9 316 12.4 101160 66
2004-10-26 08:14 51°29.055 3°2.684 6.4   12.5 101160 66
2004-10-26 08:15 51°29.181 3°2.954 4.7 315 12.6 101150 67
2004-10-26 08:16 51°29.318 3°3.252 3.8 313 12.5 101160 66
2004-10-26 08:17 51°29.447 3°3.526 4.1 317 12.6 101160 66
2004-10-26 08:18 51°29.592 3°3.813 5.4 306 12.6 101160 66
2004-10-26 08:20 51°29.734 3°4.116 3.9 288 12.6 101160 63
2004-10-26 08:21 51°29.875 3°4.412 4.6 295 12.6 101160 64
2004-10-26 08:22 51°30.006 3°4.688 3.8 308 12.6 101160 63
2004-10-26 08:23 51°30.144 3°4.971 3.9 316 12.7 101160 64
2004-10-26 08:24 51°30.289 3°5.263 4.5 317 12.7 101160 63
2004-10-26 08:25 51°30.43 3°5.559 3.7 306 12.7 101150 63
2004-10-26 08:26 51°30.564 3°5.829 3.9 315 12.7 101150 64
2004-10-26 08:27 51°30.695 3°6.099 3.5 282 12.8 101150 65
2004-10-26 08:28 51°30.825 3°6.373 5.6 294 12.8 101160 65
2004-10-26 08:29 51°30.957 3°6.646 5.6 318 12.8 101150 65
2004-10-26 08:30 51°31.096 3°6.93 5.8 290 12.9 101180 66
2004-10-26 08:31 51°31.226 3°7.193 4.8 296 12.9 101150 66
2004-10-26 08:32 51°31.363 3°7.474 4.5 297 12.9 101150 64
2004-10-26 08:33 51°31.501 3°7.754 4.8 294 12.9 101160 63
2004-10-26 08:34 51°31.635 3°8.026 5.1 312 12.9 101150 63
2004-10-26 08:35 51°31.765 3°8.293 5.7 314 12.9 101150 63
2004-10-26 08:36 51°31.895 3°8.552 6.5 293 12.9 101160 64
2004-10-26 08:37 51°32.056 3°8.892 6.5 300 12.9 101160 65
2004-10-26 08:38 51°32.189 3°9.17 6.2 307 12.8 101150 65
2004-10-26 08:39 51°32.33 3°9.462 7.1 306 12.7 101150 64
2004-10-26 08:40 51°32.464 3°9.737 5.4 309 12.6 101150 64
2004-10-26 08:41 51°32.605 3°10.034 6.1 294 12.6 101150 63
2004-10-26 08:42 51°32.74 3°10.308 5.6 297 12.5 101150 63
2004-10-26 08:44 51°32.885 3°10.622 5.8 295 12.5 101160 63
2004-10-26 08:45 51°33.02 3°10.894 6.5 298 12.5 101160 65
2004-10-26 08:46 51°33.157 3°11.166 4.9 286 12.5 101160 65
2004-10-26 08:47 51°33.306 3°11.452 5.8 301 12.5 101160 66
2004-10-26 08:48 51°33.46 3°11.761 5.4 301 12.4 101160 66
2004-10-26 08:49 51°33.607 3°12.054 6.2 309 12.4 101150 67
2004-10-26 08:50 51°33.74 3°12.32 4.6 43 12.4 101160 67
2004-10-26 08:51 51°33.871 3°12.582 6.3 308 12.4 101180 67
2004-10-26 08:52 51°34.006 3°12.852 5.8 302 12.4 101190 67
2004-10-26 08:53 51°34.155 3°13.154 6.6 303 12.4 101170 66
2004-10-26 08:54 51°34.303 3°13.446 4.9 303 12.4 101180 65
2004-10-26 08:55 51°34.452 3°13.727 4.3 316 12.5 101180 64
2004-10-26 08:56 51°34.599 3°14.023 6.2 300 12.6 101170 65
2004-10-26 08:57 51°34.733 3°14.292 3.6 313 12.6 101180 63
2004-10-26 08:58 51°34.868 3°14.556 5.2 307 12.6 101180 63
2004-10-26 08:59 51°35.006 3°14.824 5.4 310 12.7 101180 63
2004-10-26 09:00 51°35.157 3°15.124 4.4 305 12.7 101190 64
2004-10-26 09:01 51°35.292 3°15.408 6.1 305 12.7 101180 66
2004-10-26 09:02 51°35.434 3°15.708 5.1 306 12.7 101180 66
2004-10-26 09:03 51°35.566 3°15.988 5.8 310 12.7 101180 65
2004-10-26 09:04 51°35.703 3°16.269 4.6 308 12.7 101180 65
2004-10-26 09:06 51°35.852 3°16.607 6.1 297 12.7 101190 66
2004-10-26 09:07 51°35.993 3°16.912 4.5 307 12.7 101190 66
2004-10-26 09:08 51°36.119 3°17.191 6.1 307 12.7 101200 66
2004-10-26 09:09 51°36.279 3°17.544 5.9 317 12.7 101190 66
2004-10-26 09:10 51°36.407 3°17.825 5.9 308 12.7 101190 66
2004-10-26 09:11 51°36.541 3°18.112 5 228 12.7 101190 65
2004-10-26 09:12 51°36.675 3°18.406 5.2 314 12.7 101190 65
2004-10-26 09:13 51°36.813 3°18.715 5.6 301 12.7 101190 64
2004-10-26 09:14 51°36.974 3°19.065 4.1 315 12.7 101180 66
2004-10-26 09:15 51°37.123 3°19.397 4.8 325 12.7 101190 66
2004-10-26 09:16 51°37.262 3°19.713 4.7 303 12.8 101180 66
2004-10-26 09:18 51°37.42 3°20.067 5.2 307 12.8 101190 66
2004-10-26 09:19 51°37.553 3°20.363 5.7 307 12.7 101180 66
2004-10-26 09:20 51°37.727 3°20.745 4.8 322 12.7 101190 64
2004-10-26 09:21 51°37.853 3°21.042 3.9 327 12.7 101200 64
2004-10-26 09:22 51°37.992 3°21.31 4.2 228 12.7 101200 63
2004-10-26 09:23 51°38.137 3°21.572 4.6 317 12.8 101190 64
2004-10-26 09:24 51°38.291 3°21.859 5.9 304 12.8 101200 64
2004-10-26 09:25 51°38.472 3°22.194 3.5 318 12.9 101190 64
2004-10-26 09:26 51°38.643 3°22.497 6.1 317 12.9 101190 65
2004-10-26 09:28 51°38.807 3°22.803 6.8 307 12.9 101200 66
2004-10-26 09:29 51°38.95 3°23.074 6.4 304 12.9 101190 65
2004-10-26 09:30 51°39.151 3°23.45 6 309 12.8 101190 66
2004-10-26 09:31 51°39.317 3°23.759 6 306 12.7 101190 66
2004-10-26 09:32 51°39.465 3°24.03 5.3 314 12.7 101190 66
2004-10-26 09:33 51°39.676 3°24.411 5.2 304 12.5 101200 65
2004-10-26 09:35 51°39.841 3°24.706 7.3 309 12.5 101200 65
2004-10-26 09:36 51°39.999 3°24.994 6 310 12.5 101190 66
2004-10-26 09:37 51°40.179 3°25.318 5.7 305 12.4 101200 66
2004-10-26 09:38 51°40.329 3°25.592 5.8 315 12.5 101200 67
2004-10-26 09:39 51°40.465 3°25.882 5.4 311 12.4 101200 66
2004-10-26 09:40 51°40.598 3°26.174 3.6 41 12.4 101220 66
2004-10-26 09:41 51°40.761 3°26.531 3.9 314 12.4 101210 67
2004-10-26 09:42 51°40.923 3°26.892 5.4 321 12.4 101210 67
2004-10-26 09:44 51°41.112 3°27.309 5.9 320 12.5 101200 68
2004-10-26 09:45 51°41.266 3°27.617 5.5 320 12.5 101210 67
2004-10-26 09:46 51°41.454 3°27.938 7.2 305 12.6 101220 67
2004-10-26 09:47 51°41.623 3°28.221 9.2 319 12.6 101200 66
2004-10-26 09:48 51°41.789 3°28.501 7.8 44 12.6 101200 67
2004-10-26 09:49 51°41.959 3°28.739 10.4 316 12.6 101210 68
2004-10-26 09:50 51°42.214 3°28.928 9.8 317 12.5 101220 69
2004-10-26 09:51 51°42.426 3°29.091 10.4 317 12.4 101200 69
2004-10-26 09:53 51°42.656 3°29.265 9.8 323 12.3 101200 69
2004-10-26 09:54 51°42.912 3°29.464 10.6 318 12.2 101200 69
2004-10-26 09:55 51°43.158 3°29.657 9.6 42 12.2 101200 70
2004-10-26 09:56 51°43.371 3°29.842 6.6 43 12.1 101200 69
2004-10-26 09:57 51°43.548 3°30.087 7.5 226 12.1 101210 69
2004-10-26 09:58 51°43.719 3°30.344 6.2 229 12.1 101210 69
2004-10-26 09:59 51°43.876 3°30.604 6.7 227 12 101220 69
2004-10-26 10:00 51°44.027 3°30.89 5.6 42 12.1 101220 69
2004-10-26 10:01 51°44.175 3°31.167 6.6 316 12.1 101220 70
2004-10-26 10:02 51°44.346 3°31.478 5.8 313 12 101210 70
2004-10-26 10:03 51°44.506 3°31.769 6.7 312 12 101220 69
2004-10-26 10:05 51°44.683 3°32.122 4.8 322 12 101230 68
2004-10-26 10:06 51°44.793 3°32.449 3.9 325 12 101240 69
2004-10-26 10:07 51°44.876 3°32.796 3.3 317 12 101240 68
2004-10-26 10:08 51°44.968 3°33.154 3.1 338 12.1 101250 68
2004-10-26 10:09 51°45.06 3°33.532 3.9 325 12.1 101250 67
2004-10-26 10:10 51°45.145 3°33.88 3.4 319 12.2 101250 68
2004-10-26 10:11 51°45.214 3°34.237 3.5 226 12.2 101250 68
2004-10-26 10:12 51°45.273 3°34.6 2 335 12.2 101250 66
2004-10-26 10:13 51°45.273 3°35.002 2.4 354 12.3 101260 64
2004-10-26 10:14 51°45.276 3°35.416 2.7 313 12.4 101260 65
2004-10-26 10:15 51°45.32 3°35.696 4.7 269 12.5 101250 66
2004-10-26 10:16 51°45.371 3°35.778 6.1 273 12.5 101250 65
2004-10-26 10:17 51°45.382 3°35.801 5.1 282 12.6 101250 64
2004-10-26 10:18 51°45.386 3°35.82 5.9 293 12.7 101250 65
2004-10-26 10:19 51°45.389 3°35.839 6.1 295 12.7 101250 66
2004-10-26 10:20 51°45.391 3°35.859 5.8 295 12.8 101250 64
2004-10-26 10:21 51°45.392 3°35.881 5.5 291 12.8 101260 65
2004-10-26 10:22 51°45.391 3°35.908 4.4 286 12.9 101250 65
2004-10-26 10:23 51°45.39 3°35.935 5.8 284 12.9 101260 64
2004-10-26 10:24 51°45.388 3°35.963 6.4 266 12.9 101250 64
2004-10-26 10:25 51°45.385 3°35.992 3.5 255 12.8 101250 63
2004-10-26 10:26 51°45.382 3°36.022 3.1 255 12.7 101260 64
2004-10-26 10:28 51°45.38 3°36.05 4.1 253 12.7 101250 66
2004-10-26 10:29 51°45.389 3°36.09 3 255 12.6 101250 66
2004-10-26 10:30 51°45.417 3°36.154 3.5 258 12.6 101250 68
2004-10-26 10:31 51°45.445 3°36.237 3.5 249 12.6 101250 68
2004-10-26 10:32 51°45.47 3°36.318 3.2 254 12.5 101240 67
2004-10-26 10:33 51°45.496 3°36.393 3.6 244 12.4 101250 67
2004-10-26 10:34 51°45.521 3°36.467 2.5 248 12.4 101240 67
2004-10-26 10:35 51°45.54 3°36.552 3.9 244 12.4 101250 68
2004-10-26 10:36 51°45.561 3°36.628 3.1 251 12.3 101240 68
2004-10-26 10:37 51°45.589 3°36.705 3.2 255 12.3 101250 68
2004-10-26 10:38 51°45.615 3°36.777 3.1 255 12.3 101250 68
2004-10-26 10:39 51°45.639 3°36.852 3.8 249 12.3 101260 67
2004-10-26 10:40 51°45.664 3°36.934 3.6 251 12.3 101250 68
2004-10-26 10:41 51°45.69 3°37.016 2.8 255 12.3 101260 68
2004-10-26 10:42 51°45.713 3°37.092 3.3 249 12.3 101240 68
2004-10-26 10:43 51°45.738 3°37.171 4.8 259 12.3 101250 69
2004-10-26 10:44 51°45.764 3°37.246 3.3 253 12.3 101240 68
2004-10-26 10:45 51°45.791 3°37.322 3.7 247 12.2 101240 68
2004-10-26 10:46 51°45.82 3°37.394 3.8 256 12.3 101250 69
2004-10-26 10:47 51°45.851 3°37.464 4.3 257 12.3 101240 68
2004-10-26 10:48 51°45.882 3°37.532 3.1 257 12.2 101240 68
2004-10-26 10:49 51°45.911 3°37.606 2.8 255 12.2 101250 67
2004-10-26 10:50 51°45.941 3°37.678 3.4 257 12.2 101240 67
2004-10-26 10:51 51°45.972 3°37.752 3.4 258 12.1 101240 67
2004-10-26 10:52 51°46.005 3°37.828 2.7 254 12.2 101230 68
2004-10-26 10:53 51°46.038 3°37.9 4.9 262 12.3 101240 69
2004-10-26 10:54 51°46.068 3°37.974 2.8 258 12.4 101240 70
2004-10-26 10:55 51°46.102 3°38.051 2.7 260 12.4 101240 69
2004-10-26 10:56 51°46.135 3°38.125 3.6 262 12.4 101240 69
2004-10-26 10:57 51°46.169 3°38.2 5 263 12.4 101240 69
2004-10-26 10:58 51°46.207 3°38.285 4.3 255 12.4 101240 69
2004-10-26 10:59 51°46.244 3°38.365 4.5 260 12.4 101240 68
2004-10-26 11:01 51°46.284 3°38.454 3.8 249 12.4 101240 68
2004-10-26 11:02 51°46.318 3°38.532 4.4 257 12.4 101240 68
2004-10-26 11:03 51°46.351 3°38.613 3.8 250 12.3 101240 68
2004-10-26 11:04 51°46.388 3°38.715 4.6 235 12.3 101240 67
2004-10-26 11:05 51°46.416 3°38.819 3.9 218 12.3 101230 67
2004-10-26 11:06 51°46.432 3°38.912 3.6 213 12.2 101250 68
2004-10-26 11:07 51°46.443 3°38.996 2.3 193 12.2 101240 67
2004-10-26 11:08 51°46.435 3°39.102 4.3 131 12.3 101250 67
2004-10-26 11:09 51°46.396 3°39.16 4.3 80 12.3 101240 66
2004-10-26 11:10 51°46.367 3°39.148 7.1 37 12.2 101240 67
2004-10-26 11:11 51°46.345 3°39.095 7 30 12.1 101230 65
2004-10-26 11:12 51°46.311 3°39.03 7.3 31 12.1 101230 66
2004-10-26 11:13 51°46.271 3°38.954 7 34 12 101230 66
2004-10-26 11:14 51°46.243 3°38.901 7.5 34 12.1 101240 68
2004-10-26 11:15 51°46.215 3°38.847 6 33 12 101240 66
2004-10-26 11:17 51°46.186 3°38.782 6.8 30 12 101240 67
2004-10-26 11:18 51°46.162 3°38.716 6.6 31 12 101240 67
2004-10-26 11:19 51°46.142 3°38.652 6.6 35 12 101240 67
2004-10-26 11:20 51°46.121 3°38.597 6 45 12 101240 66
2004-10-26 11:21 51°46.097 3°38.544 5.8 44 12 101240 68
2004-10-26 11:22 51°46.067 3°38.483 6.6 44 12 101250 68
2004-10-26 11:23 51°46.035 3°38.417 6.4 46 12 101250 67
2004-10-26 11:24 51°46.007 3°38.359 6.1 38 12 101250 66
2004-10-26 11:25 51°45.978 3°38.301 5.4 30 12 101260 69
2004-10-26 11:27 51°45.95 3°38.241 6.7 34 12 101250 68
2004-10-26 11:28 51°45.925 3°38.187 6.6 36 12 101250 67
2004-10-26 11:29 51°45.898 3°38.132 6.6 30 12 101250 65
2004-10-26 11:30 51°45.863 3°38.076 6.6 37 12 101250 62
2004-10-26 11:31 51°45.828 3°38.021 6.6 43 12 101240 62
2004-10-26 11:32 51°45.797 3°37.968 6.5 47 12 101240 63
2004-10-26 11:33 51°45.765 3°37.914 6.5 37 12 101240 62
2004-10-26 11:34 51°45.73 3°37.856 6.4 42 12.1 101240 65
2004-10-26 11:35 51°45.698 3°37.812 5.8 43 12.1 101240 63
2004-10-26 11:37 51°45.661 3°37.762 6.7 43 12.1 101230 64
2004-10-26 11:38 51°45.625 3°37.714 6.7 40 12.1 101230 62
2004-10-26 11:39 51°45.59 3°37.67 6.3 50 12.1 101240 63
2004-10-26 11:40 51°45.552 3°37.62 6.6 46 12.1 101240 62
2004-10-26 11:41 51°45.512 3°37.565 6.5 44 12.1 101250 62
2004-10-26 11:42 51°45.477 3°37.514 5.5 44 12.1 101240 63
2004-10-26 11:43 51°45.444 3°37.464 5.3 51 12.1 101250 63
2004-10-26 11:44 51°45.404 3°37.421 6.5 37 12.1 101240 65
2004-10-26 11:45 51°45.369 3°37.378 6.5 33 12.1 101240 62
2004-10-26 11:46 51°45.346 3°37.348 5.5 41 12.1 101250 62
2004-10-26 11:48 51°45.335 3°37.336 4.5 33 12.1 101240 61
2004-10-26 11:49 51°45.332 3°37.335 4.9 41 12.1 101240 61
2004-10-26 11:50 51°45.316 3°37.298 6 27 12.1 101250 61
2004-10-26 11:51 51°45.282 3°37.231 6.9 58 12.2 101240 64
2004-10-26 11:52 51°45.23 3°37.189 5.7 55 12.2 101250 65
2004-10-26 11:53 51°45.179 3°37.146 5.7 33 12.1 101240 65
2004-10-26 11:54 51°45.145 3°37.098 6.3 35 12.1 101240 65
2004-10-26 11:55 51°45.11 3°37.045 6.1 34 12.1 101240 64
2004-10-26 11:56 51°45.082 3°36.992 5.9 29 12.1 101250 62
2004-10-26 11:57 51°45.06 3°36.927 5.7 35 12.2 101260 63
2004-10-26 11:59 51°45.035 3°36.855 6.4 28 12.3 101250 64
2004-10-26 12:00 51°45.013 3°36.784 6.4 32 12.3 101250 65
2004-10-26 12:01 51°44.99 3°36.716 5.9 35 12.2 101250 62
2004-10-26 12:02 51°44.97 3°36.644 6.1 23 12.2 101250 64
2004-10-26 12:03 51°44.959 3°36.563 6.5 29 12.2 101260 62
2004-10-26 12:04 51°44.947 3°36.494 6.4 31 12.3 101260 64
2004-10-26 12:05 51°44.928 3°36.422 6.1 28 12.3 101250 64
2004-10-26 12:06 51°44.916 3°36.352 6.8 26 12.3 101250 63
2004-10-26 12:07 51°44.906 3°36.28 6.6 19 12.4 101260 64
2004-10-26 12:08 51°44.895 3°36.205 6.4 16 12.3 101250 62
2004-10-26 12:09 51°44.884 3°36.119 6.5 16 12.4 101260 62
2004-10-26 12:10 51°44.885 3°36.044 6.3 9 12.4 101260 61
2004-10-26 12:11 51°44.911 3°35.964 6.3 355 12.5 101260 63
2004-10-26 12:12 51°44.963 3°35.91 6 325 12.5 101260 61
2004-10-26 12:13 51°45.035 3°35.905 4.9 301 12.5 101270 61
2004-10-26 12:14 51°45.084 3°35.93 4.6 289 12.6 101270 63
2004-10-26 12:15 51°45.124 3°35.963 4.2 286 12.7 101260 63
2004-10-26 12:16 51°45.157 3°35.999 3.5 286 12.8 101270 63
2004-10-26 12:17 51°45.188 3°36.037 2.6 286 12.9 101270 63
2004-10-26 12:18 51°45.216 3°36.078 5.6 266 12.9 101270 61
2004-10-26 12:20 51°45.241 3°36.119 5.4 269 12.9 101270 59
2004-10-26 12:21 51°45.262 3°36.158 4.9 265 12.9 101270 59
2004-10-26 12:22 51°45.291 3°36.198 4.9 286 12.9 101270 60
2004-10-26 12:23 51°45.375 3°36.17 7 349 12.9 101270 59
2004-10-26 12:24 51°45.365 3°36.032 9 27 12.6 101250 61
2004-10-26 12:25 51°45.275 3°35.758 11.7 20 12.5 101240 62
2004-10-26 12:26 51°45.188 3°35.471 12.1 19 12.4 101240 60
2004-10-26 12:27 51°45.102 3°35.181 10.6 16 12.4 101250 60
2004-10-26 12:28 51°45.016 3°34.883 11.9 25 12.4 101240 61
2004-10-26 12:29 51°44.927 3°34.587 10.9 21 12.3 101240 60
2004-10-26 12:30 51°44.838 3°34.296 11.3 21 12.4 101230 59
2004-10-26 12:31 51°44.724 3°34.019 10.5 32 12.4 101230 60
2004-10-26 12:32 51°44.583 3°33.789 9.4 21 12.4 101250 62
2004-10-26 12:33 51°44.418 3°33.552 10 22 12.4 101250 61
2004-10-26 12:34 51°44.257 3°33.357 9.9 29 12.3 101240 61
2004-10-26 12:35 51°44.059 3°33.112 8.9 26 12.2 101250 61
2004-10-26 12:36 51°43.888 3°32.935 9.1 24 12.2 101240 62
2004-10-26 12:37 51°43.7 3°32.799 9.3 32 12.2 101250 65
2004-10-26 12:38 51°43.507 3°32.676 9.5 30 12.2 101250 66
2004-10-26 12:39 51°43.305 3°32.569 8.6 34 12.2 101240 63
2004-10-26 12:40 51°43.08 3°32.52 8.3 40 12.2 101260 63
2004-10-26 12:41 51°42.872 3°32.56 7 46 12.2 101260 65
2004-10-26 12:42 51°42.669 3°32.69 6.5 36 12.1 101260 64
2004-10-26 12:43 51°42.45 3°32.841 7.5 50 12.2 101260 64
2004-10-26 12:44 51°42.245 3°32.987 8.1 44 12.2 101260 66
2004-10-26 12:45 51°42.027 3°33.138 8.3 45 12.2 101260 62
2004-10-26 12:46 51°41.823 3°33.276 8.4 37 12.2 101260 62
2004-10-26 12:48 51°41.579 3°33.438 7.5 39 12.2 101260 62
2004-10-26 12:49 51°41.363 3°33.585 8 44 12.2 101270 64
2004-10-26 12:50 51°41.161 3°33.72 7.7 38 12.2 101260 61
2004-10-26 12:51 51°40.946 3°33.852 8.4 34 12.2 101270 63
2004-10-26 12:52 51°40.719 3°33.924 9.5 33 12.2 101270 64
2004-10-26 12:53 51°40.502 3°33.945 9.7 23 12.2 101270 62
2004-10-26 12:54 51°40.267 3°33.88 9 18 12.3 101270 63
2004-10-26 12:55 51°40.115 3°33.655 10.8 16 12.4 101260 62
2004-10-26 12:56 51°39.981 3°33.41 10.9 21 12.4 101270 62
2004-10-26 12:57 51°39.832 3°33.149 10.7 14 12.4 101260 63
2004-10-26 12:58 51°39.676 3°32.844 10.4 13 12.4 101260 62
2004-10-26 12:59 51°39.565 3°32.56 10.8 13 12.4 101260 62
2004-10-26 13:00 51°39.462 3°32.271 10.5 11 12.3 101260 62
2004-10-26 13:01 51°39.358 3°31.974 10.9 13 12.4 101260 62
2004-10-26 13:02 51°39.228 3°31.598 11.4 9 12.4 101260 62
2004-10-26 13:03 51°39.127 3°31.309 11.1 7 12.4 101260 63
2004-10-26 13:04 51°38.998 3°31.044 9.7 24 12.4 101260 62
2004-10-26 13:05 51°38.799 3°30.919 10 23 12.4 101260 64
2004-10-26 13:06 51°38.597 3°30.8 10.3 25 12.4 101250 62
2004-10-26 13:08 51°38.376 3°30.703 10 33 12.5 101260 64
2004-10-26 13:09 51°38.145 3°30.693 9.9 31 12.4 101250 62
2004-10-26 13:10 51°37.906 3°30.766 9 37 12.3 101260 62
2004-10-26 13:11 51°37.679 3°30.849 7.8 40 12.3 101260 63
2004-10-26 13:12 51°37.473 3°30.96 7.8 39 12.2 101260 63
2004-10-26 13:13 51°37.297 3°31.053 5.6 67 12.2 101260 66
2004-10-26 13:14 51°37.25 3°31.183 2.1 175 12.2 101270 63
2004-10-26 13:15 51°37.264 3°31.251 3.4 230 12.3 101270 64
2004-10-26 13:16 51°37.283 3°31.288 3.8 258 12.4 101260 67
2004-10-26 13:17 51°37.314 3°31.339 1.9 217 12.5 101260 65
2004-10-26 13:18 51°37.326 3°31.378 3.4 180 12.6 101270 67
2004-10-26 13:19 51°37.332 3°31.405 3.9 155 12.6 101270 64
2004-10-26 13:20 51°37.322 3°31.45 3.9 98 12.5 101270 65
2004-10-26 13:21 51°37.279 3°31.451 6.1 41 12.5 101260 64
2004-10-26 13:23 51°37.231 3°31.391 5.5 30 12.4 101250 63
2004-10-26 13:24 51°37.196 3°31.332 5.5 23 12.4 101250 64
2004-10-26 13:25 51°37.167 3°31.27 5.3 30 12.4 101260 66
2004-10-26 13:26 51°37.14 3°31.207 6.2 25 12.3 101260 64
2004-10-26 13:27 51°37.117 3°31.147 5.8 25 12.3 101260 63
2004-10-26 13:28 51°37.087 3°31.067 6.1 19 12.4 101260 66
2004-10-26 13:29 51°37.064 3°31.002 5.1 26 12.5 101260 62
2004-10-26 13:31 51°37.034 3°30.915 6.2 21 12.5 101250 65
2004-10-26 13:32 51°37.017 3°30.849 5 14 12.5 101260 66
2004-10-26 13:33 51°36.999 3°30.777 6.3 13 12.5 101250 66
2004-10-26 13:34 51°36.987 3°30.705 6.5 14 12.5 101250 64
2004-10-26 13:35 51°36.974 3°30.622 6.2 18 12.5 101250 65
2004-10-26 13:36 51°36.961 3°30.548 6.4 17 12.5 101250 64
2004-10-26 13:37 51°36.948 3°30.466 5.9 13 12.5 101260 63
2004-10-26 13:38 51°36.933 3°30.381 5.2 14 12.5 101250 63
2004-10-26 13:39 51°36.919 3°30.303 4.8 18 12.5 101250 66
2004-10-26 13:40 51°36.906 3°30.222 5.4 15 12.5 101240 66
2004-10-26 13:41 51°36.892 3°30.143 6 14 12.5 101240 66
2004-10-26 13:42 51°36.877 3°30.061 5.7 15 12.5 101240 64
2004-10-26 13:44 51°36.864 3°29.982 5.5 7 12.5 101240 63
2004-10-26 13:45 51°36.851 3°29.905 5.2 10 12.5 101240 63
2004-10-26 13:46 51°36.838 3°29.83 5.6 19 12.5 101240 65
2004-10-26 13:47 51°36.823 3°29.75 5.7 16 12.5 101240 64
2004-10-26 13:48 51°36.808 3°29.666 5.3 11 12.5 101240 64
2004-10-26 13:49 51°36.796 3°29.587 5.2 16 12.5 101230 64
2004-10-26 13:50 51°36.787 3°29.5 5.6 15 12.5 101230 65
2004-10-26 13:51 51°36.781 3°29.418 5.5 16 12.5 101230 64
2004-10-26 13:52 51°36.777 3°29.331 5.3 15 12.5 101230 63
2004-10-26 13:53 51°36.771 3°29.241 6.1 14 12.5 101230 63
2004-10-26 13:54 51°36.767 3°29.159 5.3 14 12.5 101230 64
2004-10-26 13:55 51°36.767 3°29.082 5.5 10 12.5 101230 66
2004-10-26 13:56 51°36.769 3°29.021 5.2 3 12.5 101240 65
2004-10-26 13:58 51°36.774 3°28.973 5.1 3 12.5 101230 64
2004-10-26 13:59 51°36.766 3°28.915 6.3 44 12.5 101230 65
2004-10-26 14:00 51°36.73 3°28.931 3.9 114 12.5 101240 65
2004-10-26 14:01 51°36.739 3°29.025 1.5 189 12.4 101240 65
2004-10-26 14:02 51°36.769 3°29.108 2.5 153 12.5 101240 64
2004-10-26 14:03 51°36.783 3°29.19 2.2 150 12.5 101240 64
2004-10-26 14:04 51°36.796 3°29.274 2.9 166 12.6 101240 64
2004-10-26 14:05 51°36.807 3°29.359 1.9 179 12.5 101240 63
2004-10-26 14:06 51°36.821 3°29.449 1.9 160 12.5 101240 64
2004-10-26 14:07 51°36.831 3°29.536 2.3 159 12.6 101240 66
2004-10-26 14:08 51°36.835 3°29.627 2.5 133 12.6 101240 66
2004-10-26 14:10 51°36.835 3°29.727 3.3 137 12.5 101240 67
2004-10-26 14:11 51°36.834 3°29.815 2.3 140 12.5 101240 65
2004-10-26 14:12 51°36.834 3°29.892 3.1 151 12.5 101240 66
2004-10-26 14:13 51°36.834 3°29.973 2.3 139 12.5 101240 66
2004-10-26 14:14 51°36.835 3°30.054 2.7 147 12.5 101240 67
2004-10-26 14:15 51°36.836 3°30.14 3 145 12.4 101230 65
2004-10-26 14:16 51°36.837 3°30.216 3.1 159 12.4 101230 66
2004-10-26 14:17 51°36.838 3°30.293 2.6 152 12.4 101240 66
2004-10-26 14:18 51°36.839 3°30.367 3.1 156 12.4 101240 67
2004-10-26 14:19 51°36.839 3°30.442 3.2 151 12.3 101240 65
2004-10-26 14:20 51°36.839 3°30.52 2.7 148 12.3 101240 67
2004-10-26 14:21 51°36.839 3°30.598 2.8 145 12.3 101240 67
2004-10-26 14:22 51°36.838 3°30.68 3.8 145 12.4 101230 68
2004-10-26 14:23 51°36.837 3°30.756 3.4 147 12.3 101240 67
2004-10-26 14:24 51°36.835 3°30.832 3.3 144 12.3 101240 67
2004-10-26 14:25 51°36.833 3°30.907 2.9 144 12.3 101230 67
2004-10-26 14:26 51°36.831 3°30.982 2.7 152 12.4 101230 68
2004-10-26 14:27 51°36.829 3°31.067 2.7 142 12.3 101230 66
2004-10-26 14:28 51°36.827 3°31.146 2.2 147 12.3 101230 67
2004-10-26 14:29 51°36.826 3°31.224 2.8 143 12.3 101230 67
2004-10-26 14:31 51°36.823 3°31.314 2.6 150 12.3 101230 66
2004-10-26 14:32 51°36.821 3°31.384 2.7 149 12.3 101230 67
2004-10-26 14:33 51°36.818 3°31.467 3.2 142 12.4 101230 68
2004-10-26 14:34 51°36.815 3°31.539 3 141 12.3 101230 67
2004-10-26 14:35 51°36.812 3°31.619 2.8 145 12.4 101230 70
2004-10-26 14:36 51°36.808 3°31.692 3.2 154 12.4 101230 67
2004-10-26 14:37 51°36.804 3°31.764 2.9 152 12.3 101230 66
2004-10-26 14:38 51°36.799 3°31.832 2.5 144 12.4 101230 67
2004-10-26 14:39 51°36.796 3°31.901 2.3 155 12.4 101230 70
2004-10-26 14:40 51°36.801 3°31.97 1.8 211 12.4 101230 68
2004-10-26 14:41 51°36.818 3°32.016 2.3 204 12.5 101220 67
2004-10-26 14:42 51°36.836 3°32.043 3.1 218 12.5 101220 67
2004-10-26 14:43 51°36.857 3°32.063 4.6 229 12.5 101220 68
2004-10-26 14:44 51°36.876 3°32.072 3.9 238 12.5 101210 66
2004-10-26 14:45 51°36.895 3°32.076 2.4 250 12.6 101220 66
2004-10-26 14:46 51°36.913 3°32.075 3.4 248 12.6 101220 66
2004-10-26 14:47 51°36.93 3°32.07 3.6 248 12.7 101210 66
2004-10-26 14:48 51°36.947 3°32.064 3.1 257 12.7 101210 66
2004-10-26 14:49 51°36.963 3°32.053 3 258 12.6 101210 66
2004-10-26 14:50 51°36.98 3°32.043 4.2 280 12.7 101210 67
2004-10-26 14:51 51°37.042 3°31.965 7 349 12.7 101200 68
2004-10-26 14:53 51°37.041 3°31.743 9.8 5 12.6 101210 66
2004-10-26 14:54 51°37.001 3°31.379 11.5 10 12.5 101200 66
2004-10-26 14:55 51°36.932 3°31.011 11.3 6 12.5 101190 67
2004-10-26 14:56 51°36.868 3°30.652 11.6 9 12.4 101200 67
2004-10-26 14:57 51°36.805 3°30.281 11.1 12 12.4 101200 67
2004-10-26 14:58 51°36.74 3°29.886 11.4 10 12.4 101210 68
2004-10-26 14:59 51°36.685 3°29.537 12.1 11 12.4 101200 67
2004-10-26 15:00 51°36.594 3°29.108 11.6 14 12.4 101200 68
2004-10-26 15:01 51°36.519 3°28.759 12.4 10 12.4 101200 68
2004-10-26 15:02 51°36.436 3°28.373 11.8 13 12.4 101200 66
2004-10-26 15:03 51°36.341 3°27.919 10.9 8 12.5 101190 66
2004-10-26 15:04 51°36.268 3°27.527 11.5 7 12.4 101200 68
2004-10-26 15:05 51°36.203 3°27.144 11.8 9 12.4 101210 68
2004-10-26 15:06 51°36.142 3°26.78 10.7 8 12.4 101200 70
2004-10-26 15:08 51°36.071 3°26.358 11.2 16 12.4 101200 67
2004-10-26 15:09 51°36 3°25.916 11 6 12.4 101200 68
2004-10-26 15:10 51°35.94 3°25.55 10.6 13 12.4 101210 67
2004-10-26 15:11 51°35.865 3°25.08 11.8 15 12.4 101200 67
2004-10-26 15:12 51°35.797 3°24.682 10.8 11 12.4 101210 67
2004-10-26 15:13 51°35.711 3°24.281 11 8 12.4 101210 68
2004-10-26 15:14 51°35.626 3°23.892 10.8 8 12.4 101200 68
2004-10-26 15:16 51°35.545 3°23.505 11.1 12 12.4 101210 66
2004-10-26 15:17 51°35.459 3°23.103 11.5 14 12.5 101210 69
2004-10-26 15:18 51°35.362 3°22.717 11.1 13 12.5 101210 67
2004-10-26 15:19 51°35.234 3°22.33 10.9 15 12.5 101210 67
2004-10-26 15:20 51°35.108 3°21.968 10.7 19 12.5 101220 67
2004-10-26 15:21 51°34.965 3°21.563 10.7 8 12.5 101210 68
2004-10-26 15:22 51°34.876 3°21.207 11.1 8 12.5 101210 68
2004-10-26 15:23 51°34.788 3°20.864 10.6 8 12.5 101210 67
2004-10-26 15:24 51°34.662 3°20.531 9.7 9 12.5 101210 66
2004-10-26 15:25 51°34.516 3°20.179 10.3 10 12.5 101220 67
2004-10-26 15:26 51°34.395 3°19.864 10.9 13 12.5 101220 64
2004-10-26 15:28 51°34.243 3°19.46 11.2 5 12.6 101220 63
2004-10-26 15:29 51°34.108 3°19.099 11.3 11 12.6 101220 63
2004-10-26 15:30 51°33.986 3°18.771 10.5 11 12.6 101220 62
2004-10-26 15:31 51°33.871 3°18.466 10.1 11 12.6 101220 61
2004-10-26 15:32 51°33.738 3°18.105 11.2 9 12.6 101220 62
2004-10-26 15:33 51°33.613 3°17.768 11 12 12.7 101220 61
2004-10-26 15:34 51°33.483 3°17.418 11.9 16 12.7 101220 62
2004-10-26 15:35 51°33.353 3°17.067 10.6 14 12.7 101220 59
2004-10-26 15:36 51°33.225 3°16.75 9.8 15 12.7 101220 61
2004-10-26 15:37 51°33.072 3°16.427 10.9 14 12.7 101220 62
2004-10-26 15:38 51°32.935 3°16.135 10.6 8 12.7 101220 61
2004-10-26 15:39 51°32.793 3°15.842 11 12 12.6 101210 60
2004-10-26 15:40 51°32.655 3°15.551 11 12 12.6 101220 61
2004-10-26 15:41 51°32.508 3°15.247 10.9 10 12.6 101230 61
2004-10-26 15:42 51°32.362 3°14.942 12.3 9 12.6 101220 60
2004-10-26 15:43 51°32.22 3°14.648 11.5 9 12.6 101230 59
2004-10-26 15:44 51°32.077 3°14.354 11.4 11 12.6 101230 59
2004-10-26 15:45 51°31.93 3°14.057 10.6 12 12.6 101230 59
2004-10-26 15:46 51°31.786 3°13.762 11.7 10 12.6 101230 62
2004-10-26 15:47 51°31.64 3°13.463 11.4 11 12.6 101220 60
2004-10-26 15:49 51°31.462 3°13.096 11.2 9 12.6 101230 58
2004-10-26 15:50 51°31.313 3°12.793 10.5 13 12.6 101220 59
2004-10-26 15:51 51°31.155 3°12.513 10.2 16 12.5 101230 59
2004-10-26 15:52 51°30.997 3°12.24 10.1 9 12.5 101230 60
2004-10-26 15:53 51°30.837 3°11.972 11 13 12.5 101230 59
2004-10-26 15:54 51°30.679 3°11.701 10.4 8 12.5 101220 60
2004-10-26 15:55 51°30.524 3°11.433 10.2 9 12.5 101230 61
2004-10-26 15:56 51°30.362 3°11.159 9.4 10 12.5 101220 60
2004-10-26 15:57 51°30.202 3°10.887 10.2 6 12.5 101230 60
2004-10-26 15:58 51°30.047 3°10.618 9.8 3 12.5 101230 61
2004-10-26 15:59 51°29.865 3°10.306 10 4 12.5 101230 61
2004-10-26 16:00 51°29.707 3°10.042 9.8 8 12.5 101230 62
2004-10-26 16:01 51°29.54 3°9.783 9.7 8 12.5 101230 62
2004-10-26 16:02 51°29.371 3°9.524 9.9 8 12.5 101230 62
2004-10-26 16:03 51°29.2 3°9.264 9.7 5 12.5 101230 62
2004-10-26 16:04 51°29.036 3°9.01 9.8 5 12.6 101230 63
2004-10-26 16:05 51°28.869 3°8.742 10.1 4 12.5 101230 61
2004-10-26 16:06 51°28.713 3°8.473 10.2 4 12.5 101230 61
2004-10-26 16:07 51°28.549 3°8.209 8.9 5 12.5 101230 61
2004-10-26 16:08 51°28.378 3°7.957 9.4 5 12.5 101240 61
2004-10-26 16:09 51°28.215 3°7.708 10.1 8 12.5 101240 62
2004-10-26 16:10 51°28.04 3°7.447 9.7 5 12.5 101240 62
2004-10-26 16:11 51°27.868 3°7.19 9.8 7 12.5 101240 61
2004-10-26 16:12 51°27.701 3°6.942 10 3 12.5 101230 61
2004-10-26 16:13 51°27.532 3°6.687 9.9 355 12.5 101240 62
2004-10-26 16:14 51°27.366 3°6.436 10.4 1 12.6 101240 64
2004-10-26 16:15 51°27.192 3°6.183 10.3 358 12.6 101240 65
2004-10-26 16:16 51°27.023 3°5.931 9.6 6 12.5 101240 64
2004-10-26 16:17 51°26.854 3°5.681 10.1 5 12.6 101240 64
2004-10-26 16:18 51°26.685 3°5.426 9.6   12.6 101240 65
2004-10-26 16:19 51°26.515 3°5.174 9.7 355 12.6 101240 64
2004-10-26 16:20 51°26.346 3°4.921 9.4 4 12.6 101240 63
2004-10-26 16:21 51°26.176 3°4.668 9.5 2 12.6 101240 64
2004-10-26 16:22 51°26.009 3°4.439 9.8 358 12.6 101240 64
2004-10-26 16:23 51°25.83 3°4.195 9.6 6 12.6 101230 64
2004-10-26 16:24 51°25.646 3°3.945 9.8 3 12.6 101230 64
2004-10-26 16:25 51°25.464 3°3.7 9.8 2 12.6 101230 64
2004-10-26 16:26 51°25.285 3°3.445 10.2 1 12.6 101220 64
2004-10-26 16:27 51°25.106 3°3.191 9.6 358 12.6 101220 63
2004-10-26 16:28 51°24.914 3°2.909 9.4 360 12.6 101220 63
2004-10-26 16:29 51°24.735 3°2.647 9 4 12.6 101220 63
2004-10-26 16:30 51°24.555 3°2.384 9.3 5 12.6 101220 64
2004-10-26 16:31 51°24.373 3°2.124 9.8 3 12.6 101230 64
2004-10-26 16:32 51°24.19 3°1.867 9.4   12.6 101220 63
2004-10-26 16:33 51°24.01 3°1.613 9.2 359 12.6 101220 64
2004-10-26 16:34 51°23.823 3°1.353 8.8 1 12.7 101220 64
2004-10-26 16:35 51°23.639 3°1.1 9.3 359 12.6 101220 63
2004-10-26 16:36 51°23.455 3°0.845 9.2 359 12.7 101220 63
2004-10-26 16:37 51°23.262 3°0.578 8.6 357 12.7 101220 63
2004-10-26 16:38 51°23.059 3°0.301 9.1 2 12.7 101220 64
2004-10-26 16:39 51°22.874 3°0.052 9.1 2 12.7 101220 63
2004-10-26 16:40 51°22.688 2°59.804 10 356 12.7 101230 64
2004-10-26 16:41 51°22.503 2°59.552 8.6 3 12.7 101220 63
2004-10-26 16:42 51°22.324 2°59.311 8.7 356 12.7 101230 64
2004-10-26 16:43 51°22.132 2°59.055 9 359 12.7 101220 65
2004-10-26 16:44 51°21.946 2°58.804 8.9 356 12.7 101220 65
2004-10-26 16:45 51°21.761 2°58.552 10.2 355 12.7 101230 65
2004-10-26 16:46 51°21.575 2°58.302 9.9 358 12.7 101230 64
2004-10-26 16:47 51°21.386 2°58.047 10.2 355 12.8 101230 64
2004-10-26 16:48 51°21.203 2°57.8 9.1 356 12.8 101230 63
2004-10-26 16:49 51°21.016 2°57.547 9.3 359 12.8 101230 64
2004-10-26 16:50 51°20.828 2°57.298 9.3 1 12.8 101230 63
2004-10-26 16:51 51°20.639 2°57.049 9.8 358 12.8 101230 62
2004-10-26 16:52 51°20.428 2°56.77 9.8 357 12.8 101230 63
2004-10-26 16:53 51°20.236 2°56.516 9.8 357 12.8 101220 63
2004-10-26 16:54 51°20.05 2°56.269 9.9 357 12.8 101230 63
2004-10-26 16:55 51°19.86 2°56.021 9 357 12.8 101230 62
2004-10-26 16:56 51°19.669 2°55.764 9.2 353 12.8 101230 63
2004-10-26 16:57 51°19.485 2°55.515 9.3 355 12.9 101240 63
2004-10-26 16:58 51°19.295 2°55.256 9.4 351 12.8 101230 62
2004-10-26 16:59 51°19.107 2°55.003 8.9 356 12.8 101240 61
2004-10-26 17:00 51°18.919 2°54.751 9.5 353 12.8 101240 62
2004-10-26 17:01 51°18.737 2°54.512 9.4 353 12.8 101230 61
2004-10-26 17:02 51°18.545 2°54.271 9.6 358 12.8 101240 61
2004-10-26 17:03 51°18.346 2°54.025 9.6 354 12.8 101250 61
2004-10-26 17:04 51°18.117 2°53.786 9.1 357 12.8 101250 62
2004-10-26 17:05 51°17.905 2°53.611 9.2 352 12.9 101240 63
2004-10-26 17:06 51°17.668 2°53.433 8.7 356 12.8 101240 63
2004-10-26 17:07 51°17.422 2°53.272 9.5 353 12.9 101240 64
2004-10-26 17:08 51°17.2 2°53.167 10 357 12.8 101240 62
2004-10-26 17:09 51°16.987 2°53.13 9.4 2 12.8 101240 62
2004-10-26 17:10 51°16.778 2°53.205 9.9 2 12.8 101250 63
2004-10-26 17:11 51°16.534 2°53.24 10.6 5 12.9 101240 63
2004-10-26 17:12 51°16.29 2°53.304 9.5 8 12.8 101240 63
2004-10-26 17:14 51°16.041 2°53.386 10.1 8 12.8 101240 61
2004-10-26 17:15 51°15.763 2°53.492 10.7 5 12.8 101250 60
2004-10-26 17:16 51°15.54 2°53.58 10.3 4 12.9 101250 60
2004-10-26 17:17 51°15.334 2°53.717 9.8 9 12.9 101250 60
2004-10-26 17:18 51°15.151 2°53.936 9.4 12 12.9 101260 61
2004-10-26 17:19 51°14.994 2°54.167 9.2 12 12.8 101250 60
2004-10-26 17:20 51°14.834 2°54.382 8.9 11 12.8 101260 61
2004-10-26 17:21 51°14.656 2°54.623 9 13 12.8 101260 61
2004-10-26 17:22 51°14.507 2°54.839 8.6 14 12.8 101260 61
2004-10-26 17:23 51°14.361 2°55.085 8.3 9 12.7 101270 61
2004-10-26 17:24 51°14.249 2°55.286 6.5 12 12.6 101270 62
2004-10-26 17:25 51°14.16 2°55.393 5.5 10 12.6 101270 61
2004-10-26 17:26 51°14.085 2°55.459 5.1 7 12.6 101270 61
2004-10-26 17:27 51°13.997 2°55.519 5.3   12.5 101270 62
2004-10-26 17:28 51°13.893 2°55.591 5.7   12.5 101270 63
2004-10-26 17:29 51°13.789 2°55.674 5.6 3 12.4 101270 63
2004-10-26 17:30 51°13.702 2°55.807 5.3 7 12.3 101270 64
2004-10-26 17:31 51°13.649 2°55.934 4.4 14 12.2 101270 64
2004-10-26 17:32 51°13.619 2°56.036 2.9 15 12.1 101270 64
2004-10-26 17:33 51°13.601 2°56.096 2.1 4 12.1 101270 64
2004-10-26 17:34 51°13.595 2°56.112 1.4 12 12.1 101270 65
2004-10-26 17:35 51°13.594 2°56.113 1.8 26 12 101270 65
2004-10-26 17:36 51°13.595 2°56.114 0.7 36 12 101270 65
2004-10-26 17:37 51°13.595 2°56.114 1.4 14 12 101270 65
2004-10-26 17:38 51°13.595 2°56.109 1.1 7 12 101270 65
2004-10-26 17:39 51°13.596 2°56.112 0.7 7 12 101270 65